Providencia, El Embrujo Airport (SKPV)

NameEl Embrujo Airport
CityProvidencia
CountryColombia
ICAOSKPV
IATAPVA
Altitude3 m
CoordinatesGoogle Map
Live Air TrafficLiveATC.net
METARSKPV 201200Z 09004KT -DZ FEW017 BKN070 26/25 A2986
2019-05-20 12:00:00 Wind: East (90°) 2.06 m/s - Visibility: 900 m - Weather: Light Drizzle - Temperature: 26 °C - Dew point: 25 °C - Humidity: 94.2% - Pressure: 1011.18 hPa
Statistics

The table below shows the detailed information of all flights to/from Providencia, El Embrujo Airport (SKPV).